createdAt,value
2022-10-01T00:06:23.291Z,1024.9163879598661
2022-10-01T00:15:13.705Z,984.6020066889632
2022-10-01T00:22:00.438Z,988.2341137123746
2022-10-01T00:35:17.425Z,1053.4816053511706
2022-10-01T00:41:46.433Z,986.1371237458194
2022-10-01T00:53:54.561Z,1000.4548494983278
2022-10-01T01:00:22.675Z,997.2441471571906
2022-10-01T01:09:13.819Z,1015.685618729097
2022-10-01T01:21:34.545Z,1052.9498327759197
2022-10-01T01:28:02.272Z,1036.9765886287626
2022-10-01T01:34:30.694Z,1046.0869565217392
2022-10-01T01:45:46.745Z,983.8695652173913
2022-10-01T01:55:41.664Z,978.1204013377926
2022-10-01T02:02:10.239Z,1013.4682274247492
2022-10-01T02:08:38.281Z,1069.896321070234
2022-10-01T02:15:05.842Z,1113.7224080267558
2022-10-01T02:21:34.305Z,1190.408026755853
2022-10-01T02:31:19.768Z,1185.3511705685619
2022-10-01T02:43:25.241Z,1234.5551839464883
2022-10-01T02:52:21.157Z,1261.0334448160536
2022-10-01T03:01:37.151Z,1294.6053511705686
2022-10-01T03:08:04.150Z,1366.9966555183946
2022-10-01T03:14:31.998Z,1352.3177257525083
2022-10-01T03:20:59.137Z,1411.0535117056857
2022-10-01T03:27:35.278Z,1405.6655518394648
2022-10-01T03:34:03.163Z,1436.6789297658863
2022-10-01T03:40:31.228Z,1421.5083612040135
2022-10-01T03:46:59.360Z,1408.103678929766
2022-10-01T03:53:27.211Z,1441.123745819398
2022-10-01T03:59:55.008Z,1419.391304347826
2022-10-01T04:06:23.992Z,1418.3578595317726
2022-10-01T04:17:45.720Z,1343.809364548495
2022-10-01T04:24:14.529Z,1302.6923076923076
2022-10-01T04:30:42.523Z,1311.3110367892978
2022-10-01T04:37:09.912Z,1289.076923076923
2022-10-01T04:43:38.477Z,1262.5284280936455
2022-10-01T04:53:03.958Z,1227.4916387959865
2022-10-01T04:59:32.160Z,1195.1337792642141
2022-10-01T05:05:59.913Z,1219.9364548494984
2022-10-01T05:12:29.084Z,1123.9966555183946
2022-10-01T05:18:57.099Z,1096.6053511705686
2022-10-01T05:25:25.674Z,996.581939799331
2022-10-01T05:31:55.207Z,932.0066889632106
2022-10-01T05:38:25.078Z,918.5217391304348
2022-10-01T05:44:52.465Z,945.4314381270902
2022-10-01T05:51:20.424Z,950.1772575250836
2022-10-01T05:57:48.168Z,991.4247491638796
2022-10-01T06:04:15.296Z,947.3678929765887
2022-10-01T06:10:44.144Z,962.8996655518395
2022-10-01T06:17:11.966Z,875.3578595317725
2022-10-01T06:23:50.657Z,930.551839464883
2022-10-01T06:30:18.737Z,833.4782608695652
2022-10-01T06:39:49.913Z,752.3277591973244
2022-10-01T06:50:47.707Z,740.4080267558528
2022-10-01T06:57:15.802Z,719.1672240802676
2022-10-01T07:03:43.931Z,692.7792642140469
2022-10-01T07:10:11.147Z,655.1538461538462
2022-10-01T07:21:25.490Z,632.3076923076923
2022-10-01T07:27:59.562Z,656.0769230769231
2022-10-01T07:34:28.934Z,636.6020066889632
2022-10-01T07:40:59.916Z,624.4013377926422
2022-10-01T07:47:29.666Z,616.6555183946489
2022-10-01T07:53:58.917Z,683.1270903010034
2022-10-01T08:00:28.123Z,695.5384615384615
2022-10-01T08:06:55.584Z,799.9866220735786
2022-10-01T08:18:52.239Z,836.61872909699
2022-10-01T08:25:27.849Z,962.2775919732442
2022-10-01T08:31:55.480Z,1083.391304347826
2022-10-01T08:38:23.342Z,1099.0735785953177
2022-10-01T08:44:51.202Z,1132.4448160535117
2022-10-01T08:51:19.713Z,1132.0234113712374
2022-10-01T09:04:22.414Z,1199.4581939799332
2022-10-01T09:10:53.446Z,1231.9565217391305
2022-10-01T09:17:22.077Z,1258.4247491638796
2022-10-01T09:23:55.919Z,1279.0234113712374
2022-10-01T09:30:30.382Z,1258.2140468227424
2022-10-01T09:37:13.737Z,1369.876254180602
2022-10-01T09:43:46.089Z,1365.0100334448161
2022-10-01T09:55:44.879Z,1269.3511705685619
2022-10-01T10:02:15.637Z,1276.6354515050168
2022-10-01T10:08:46.427Z,1348.5551839464883
2022-10-01T10:15:16.878Z,1287.8929765886287
2022-10-01T10:21:47.538Z,1265.7692307692307
2022-10-01T10:28:22.804Z,1207.5250836120401
2022-10-01T10:34:57.025Z,1223.6588628762543
2022-10-01T10:41:33.198Z,1222.284280936455
2022-10-01T10:50:35.465Z,1350.8227424749164
2022-10-01T10:57:05.140Z,1155.6220735785953
2022-10-01T11:03:43.724Z,1107.0
2022-10-01T11:10:13.893Z,1005.0301003344482
2022-10-01T11:16:45.671Z,1053.3210702341137
2022-10-01T11:23:14.977Z,1034.7491638795987
2022-10-01T11:35:54.599Z,981.3411371237459
2022-10-01T11:42:25.050Z,830.6488294314381
2022-10-01T11:53:06.008Z,784.6755852842809
2022-10-01T12:01:37.980Z,760.3244147157191
2022-10-01T12:08:08.606Z,804.9933110367894
2022-10-01T12:16:19.089Z,756.9331103678929
2022-10-01T12:24:44.823Z,632.7692307692307
2022-10-01T12:35:34.146Z,733.886287625418
2022-10-01T12:42:03.883Z,662.4882943143813
2022-10-01T12:48:37.419Z,701.7391304347826
2022-10-01T12:59:15.608Z,155.65886287625418
2022-10-01T13:05:46.560Z,145.94648829431438
2022-10-01T13:13:07.767Z,133.08361204013377
2022-10-01T13:19:37.893Z,123.97324414715719
2022-10-01T13:26:08.287Z,118.71571906354515
2022-10-01T13:38:30.812Z,179.8896321070234
2022-10-01T13:45:01.109Z,145.50501672240802
2022-10-01T13:55:11.357Z,126.66220735785953
2022-10-01T14:01:44.319Z,208.11371237458195
2022-10-01T14:13:15.640Z,169.2742474916388
2022-10-01T14:19:47.008Z,156.51170568561872
2022-10-01T14:26:21.417Z,150.53177257525084
2022-10-01T14:32:52.790Z,175.09364548494983
2022-10-01T14:39:24.225Z,203.96989966555185
2022-10-01T14:45:56.880Z,245.80936454849498
2022-10-01T14:52:28.250Z,187.79598662207357
2022-10-01T15:04:37.457Z,193.88628762541805
2022-10-01T15:11:08.495Z,168.1304347826087
2022-10-01T15:17:37.660Z,189.1103678929766
2022-10-01T15:24:07.915Z,182.2173913043478
2022-10-01T15:30:40.210Z,183.92307692307693
2022-10-01T15:37:08.755Z,164.09698996655518
2022-10-01T15:43:40.819Z,195.49163879598663
2022-10-01T15:50:16.008Z,196.55518394648828
2022-10-01T15:56:50.245Z,191.53846153846155
2022-10-01T16:03:20.082Z,208.0133779264214
2022-10-01T16:09:47.889Z,255.10033444816054
2022-10-01T16:16:16.312Z,237.2608695652174
2022-10-01T16:26:53.190Z,202.5953177257525
2022-10-01T16:33:21.109Z,251.79933110367892
2022-10-01T16:39:49.081Z,236.89966555183946
2022-10-01T16:49:02.150Z,307.876254180602
2022-10-01T16:57:10.324Z,340.6555183946488
2022-10-01T17:03:38.399Z,336.10033444816054
2022-10-01T17:10:06.108Z,500.6588628762542
2022-10-01T17:16:34.763Z,356.94983277591973
2022-10-01T17:23:03.897Z,317.1371237458194
2022-10-01T17:29:32.890Z,377.1571906354515
2022-10-01T17:36:01.341Z,364.03344481605353
2022-10-01T17:42:31.073Z,345.74247491638795
2022-10-01T17:48:58.946Z,383.52842809364546
2022-10-01T17:55:27.487Z,581.3979933110368
2022-10-01T18:01:56.009Z,620.61872909699
2022-10-01T18:12:44.512Z,587.438127090301
2022-10-01T18:19:52.385Z,581.8294314381271
2022-10-01T18:26:21.309Z,567.4214046822742
2022-10-01T18:32:51.789Z,478.39464882943145
2022-10-01T18:42:01.965Z,558.4515050167224
2022-10-01T18:56:58.844Z,549.4916387959867
2022-10-01T19:15:36.188Z,497.6989966555184
2022-10-01T19:32:09.228Z,525.4816053511705
2022-10-01T19:49:41.214Z,530.7591973244147
2022-10-01T20:10:40.592Z,558.7926421404683
2022-10-01T20:42:01.786Z,454.9966555183947
2022-10-01T21:13:41.148Z,464.16722408026754
2022-10-01T21:31:00.375Z,464.16722408026754
2022-10-01T21:55:33.162Z,438.46153846153845
2022-10-01T22:23:07.468Z,386.1471571906354
2022-10-01T22:41:50.621Z,368.38795986622074
2022-10-01T22:57:08.862Z,353.81939799331104
2022-10-01T23:04:33.289Z,387.7926421404682
2022-10-01T23:12:48.098Z,373.9464882943144
2022-10-01T23:19:15.212Z,354.9933110367893
2022-10-01T23:25:46.707Z,338.61872909698997
2022-10-01T23:32:14.715Z,372.05016722408027
2022-10-01T23:38:41.523Z,356.03678929765886
2022-10-01T23:56:50.621Z,364.494983277592
